Time;durP1;ratioP1;P1;durP2;ratioP2;P2;SDS_P1;SDS_P2;PMS_P1;PMS_P2;Temp;Humidity;BMP_temperature;BMP_pressure;BME280_temperature;BME280_humidity;BME280_pressure;Samples;Min_cycle;Max_cycle;Signal;HPM_P1;HPM_P2
2022/09/17 00:02:29;;;;;;;;;;;;;;;9.09;88.16;99129.03;8334460;28;19925;-80
2022/09/17 00:06:31;;;;;;;;;;;;;;;9.08;88.65;99132.50;8351384;28;20246;-80
2022/09/17 00:10:36;;;;;;;;;;;;;;;9.04;88.75;99133.38;8339553;28;19932;-80
2022/09/17 00:14:39;;;;;;;;;;;;;;;9.02;88.24;99139.44;8354607;28;20562;-80
2022/09/17 00:18:40;;;;;;;;;;;;;;;8.96;88.73;99131.66;8365736;28;19924;-80
2022/09/17 00:22:42;;;;;;;;;;;;;;;8.96;89.13;99136.84;8385690;28;19924;-80
2022/09/17 00:26:43;;;;;;;;;;;;;;;8.90;89.08;99129.94;8358072;28;19997;-80
2022/09/17 00:30:45;;;;;;;;;;;;;;;8.86;89.20;99132.56;8350214;28;19959;-80
2022/09/17 00:34:48;;;;;;;;;;;;;;;8.85;89.43;99134.28;8324796;28;19925;-80
2022/09/17 00:38:58;;;;;;;;;;;;;;;8.81;89.03;99131.72;8347958;28;19982;-80
2022/09/17 00:42:59;;;;;;;;;;;;;;;8.72;89.01;99120.47;8342555;28;19930;-80
2022/09/17 00:47:11;;;;;;;;;;;;;;;8.68;88.73;99120.50;8370995;28;19935;-80
2022/09/17 00:51:14;;;;;;;;;;;;;;;8.68;88.78;99117.91;8366389;28;20517;-81
2022/09/17 00:55:21;;;;;;;;;;;;;;;8.69;89.57;99125.66;8387520;28;19920;-80
2022/09/17 00:59:23;;;;;;;;;;;;;;;8.62;88.84;99126.56;8374156;28;19925;-80
2022/09/17 01:03:25;;;;;;;;;;;;;;;8.58;89.49;99129.13;8377066;28;19936;-80
2022/09/17 01:07:37;;;;;;;;;;;;;;;8.50;90.00;99134.31;8366847;28;20359;-80
2022/09/17 01:11:45;;;;;;;;;;;;;;;8.45;89.91;99123.97;8376284;28;19920;-80
2022/09/17 01:15:50;;;;;;;;;;;;;;;8.46;89.86;99123.09;8364918;28;19970;-80
2022/09/17 01:20:00;;;;;;;;;;;;;;;8.45;90.67;99134.31;8371336;28;19935;-80
2022/09/17 01:24:21;;;;;;;;;;;;;;;8.48;90.64;99139.50;8385407;28;19932;-80
2022/09/17 01:28:22;;;;;;;;;;;;;;;8.45;90.72;99139.50;8387080;28;20005;-80
2022/09/17 01:32:35;;;;;;;;;;;;;;;8.42;90.55;99143.78;8388306;28;19928;-80
2022/09/17 01:36:55;;;;;;;;;;;;;;;8.38;90.27;99153.28;8394466;28;19932;-80
2022/09/17 01:41:06;;;;;;;;;;;;;;;8.31;89.74;99153.25;8390159;28;20547;-79
2022/09/17 01:45:18;;;;;;;;;;;;;;;8.23;89.75;99150.63;8365625;28;19924;-80
2022/09/17 01:49:21;;;;;;;;;;;;;;;8.15;90.02;99154.94;8351700;28;20011;-80
2022/09/17 01:53:24;;;;;;;;;;;;;;;8.09;90.19;99154.94;8361741;28;20403;-80
2022/09/17 01:57:35;;;;;;;;;;;;;;;8.02;89.95;99154.06;8367006;28;19928;-80
2022/09/17 02:01:40;;;;;;;;;;;;;;;7.99;90.80;99158.38;8367038;28;19924;-80
2022/09/17 02:05:55;;;;;;;;;;;;;;;7.95;90.48;99154.91;8391985;28;19928;-80
2022/09/17 02:09:56;;;;;;;;;;;;;;;7.91;90.58;99153.19;8378676;28;19956;-80
2022/09/17 02:13:59;;;;;;;;;;;;;;;7.88;90.87;99143.69;8377303;28;19928;-80
2022/09/17 02:18:30;;;;;;;;;;;;;;;7.87;91.06;99156.59;8352447;28;20505;-80
2022/09/17 02:22:41;;;;;;;;;;;;;;;7.91;91.54;99160.09;8345528;28;20277;-80
2022/09/17 02:26:59;;;;;;;;;;;;;;;7.86;91.19;99160.91;8336894;28;20494;-80
2022/09/17 02:31:00;;;;;;;;;;;;;;;7.79;91.21;99161.78;8339341;28;20540;-80
2022/09/17 02:35:12;;;;;;;;;;;;;;;7.77;91.21;99160.03;8360956;28;19925;-80
2022/09/17 02:39:14;;;;;;;;;;;;;;;7.78;91.38;99152.28;8334380;28;19924;-80
2022/09/17 02:43:25;;;;;;;;;;;;;;;7.76;91.29;99151.44;8359411;28;19982;-80
2022/09/17 02:47:27;;;;;;;;;;;;;;;7.82;91.79;99156.59;8353284;28;19932;-80
2022/09/17 02:51:34;;;;;;;;;;;;;;;7.92;92.34;99161.81;8342245;28;19937;-80
2022/09/17 02:55:38;;;;;;;;;;;;;;;8.06;93.40;99162.69;8338241;28;19924;-80
2022/09/17 02:59:51;;;;;;;;;;;;;;;8.21;93.60;99154.09;8352245;28;19974;-80
2022/09/17 03:03:54;;;;;;;;;;;;;;;8.31;93.64;99159.28;8351505;28;19958;-81
2022/09/17 03:08:02;;;;;;;;;;;;;;;8.40;93.34;99154.13;8366916;28;19982;-80
2022/09/17 03:12:04;;;;;;;;;;;;;;;8.46;92.78;99154.16;8370816;28;20035;-80
2022/09/17 03:16:06;;;;;;;;;;;;;;;8.43;92.30;99151.53;8376825;28;19935;-80
2022/09/17 03:20:08;;;;;;;;;;;;;;;8.45;92.28;99174.84;8381648;28;20230;-81
2022/09/17 03:24:10;;;;;;;;;;;;;;;8.42;91.31;99172.25;8379121;28;19924;-81
2022/09/17 03:28:11;;;;;;;;;;;;;;;8.42;91.85;99177.41;8354953;28;19974;-80
2022/09/17 03:32:13;;;;;;;;;;;;;;;8.45;92.22;99175.72;8383144;28;20250;-81
2022/09/17 03:36:14;;;;;;;;;;;;;;;8.47;91.87;99175.72;8353707;28;19920;-80
2022/09/17 03:40:16;;;;;;;;;;;;;;;8.48;91.30;99180.91;8355536;28;19928;-80
2022/09/17 03:44:18;;;;;;;;;;;;;;;8.53;91.93;99180.88;8370903;28;19967;-80
2022/09/17 03:48:19;;;;;;;;;;;;;;;8.57;91.80;99192.09;8329133;28;19925;-80
2022/09/17 03:52:21;;;;;;;;;;;;;;;8.62;91.51;99180.03;8329045;28;19932;-81
2022/09/17 03:56:22;;;;;;;;;;;;;;;8.65;91.41;99187.81;8344715;28;19929;-81
2022/09/17 04:00:24;;;;;;;;;;;;;;;8.66;91.27;99181.75;8335463;28;19925;-81
2022/09/17 04:04:32;;;;;;;;;;;;;;;8.59;90.67;99180.88;8318276;28;20354;-80
2022/09/17 04:08:35;;;;;;;;;;;;;;;8.58;91.02;99196.41;8322492;28;19971;-81
2022/09/17 04:12:43;;;;;;;;;;;;;;;8.55;90.67;99191.22;8305111;28;20610;-80
2022/09/17 04:16:45;;;;;;;;;;;;;;;8.56;90.74;99200.72;8338477;28;19924;-80
2022/09/17 04:20:53;;;;;;;;;;;;;;;8.54;90.40;99199.88;8327416;28;19947;-81
2022/09/17 04:24:55;;;;;;;;;;;;;;;8.55;90.88;99199.84;8326624;28;19921;-80
2022/09/17 04:28:56;;;;;;;;;;;;;;;8.63;90.89;99205.91;8326130;28;19936;-81
2022/09/17 04:32:57;;;;;;;;;;;;;;;8.62;90.47;99203.34;8342801;28;19929;-80
2022/09/17 04:36:59;;;;;;;;;;;;;;;8.62;90.84;99203.34;8299935;28;20346;-80
2022/09/17 04:41:00;;;;;;;;;;;;;;;8.69;90.35;99205.03;8304796;28;19925;-81
2022/09/17 04:45:02;;;;;;;;;;;;;;;8.70;90.50;99201.59;8297113;28;20350;-80
2022/09/17 04:49:03;;;;;;;;;;;;;;;8.76;90.88;99214.53;8293959;28;20358;-80
2022/09/17 04:53:04;;;;;;;;;;;;;;;8.81;90.62;99217.13;8292773;28;20613;-80
2022/09/17 04:57:06;;;;;;;;;;;;;;;8.81;90.50;99220.59;8293616;28;19925;-80
2022/09/17 05:01:07;;;;;;;;;;;;;;;8.81;89.18;99220.59;8311941;28;19925;-80
2022/09/17 05:05:09;;;;;;;;;;;;;;;8.79;89.66;99224.88;8322775;28;19936;-81
2022/09/17 05:09:10;;;;;;;;;;;;;;;8.78;89.32;99223.16;8318819;28;19925;-80
2022/09/17 05:13:11;;;;;;;;;;;;;;;8.81;89.93;99224.91;8309066;28;20189;-81
2022/09/17 05:17:13;;;;;;;;;;;;;;;8.80;89.44;99218.88;8285657;28;20342;-80
2022/09/17 05:21:15;;;;;;;;;;;;;;;8.85;89.98;99232.66;8280773;28;19975;-80
2022/09/17 05:25:17;;;;;;;;;;;;;;;8.83;89.78;99234.41;8285217;28;19929;-81
2022/09/17 05:29:19;;;;;;;;;;;;;;;8.90;90.00;99236.09;8259035;28;19926;-81
2022/09/17 05:33:20;;;;;;;;;;;;;;;8.94;89.67;99234.38;8283201;28;19925;-80
2022/09/17 05:37:22;;;;;;;;;;;;;;;8.96;89.69;99237.81;8348204;28;19928;-80
2022/09/17 05:41:23;;;;;;;;;;;;;;;8.90;89.00;99243.88;8346798;28;20342;-81
2022/09/17 05:45:24;;;;;;;;;;;;;;;8.94;89.25;99243.00;8343261;28;19925;-80
2022/09/17 05:49:26;;;;;;;;;;;;;;;8.97;89.43;99258.53;8344556;28;19997;-81
2022/09/17 05:53:34;;;;;;;;;;;;;;;9.00;89.62;99250.78;8347799;28;19986;-80
2022/09/17 05:57:35;;;;;;;;;;;;;;;9.04;89.07;99255.09;8331927;28;19931;-81
2022/09/17 06:01:43;;;;;;;;;;;;;;;9.08;89.41;99259.41;8341539;28;19924;-81
2022/09/17 06:05:57;;;;;;;;;;;;;;;9.14;89.04;99262.84;8325145;28;19925;-81
2022/09/17 06:09:58;;;;;;;;;;;;;;;9.19;88.79;99266.31;8336445;28;20250;-81
2022/09/17 06:14:07;;;;;;;;;;;;;;;9.31;89.54;99269.72;8340898;28;20002;-81
2022/09/17 06:18:08;;;;;;;;;;;;;;;9.42;89.01;99268.88;8353754;28;19925;-80
2022/09/17 06:22:58;;;;;;;;;;;;;;;9.46;87.62;99263.66;8333511;28;19930;-82
2022/09/17 06:28:25;;;;;;;;;;;;;;;9.58;88.20;99260.19;8364770;28;19912;-80
2022/09/17 06:32:38;;;;;;;;;;;;;;;9.93;87.26;99262.69;8366676;28;19978;-80
2022/09/17 06:36:47;;;;;;;;;;;;;;;10.28;86.01;99262.56;8354744;28;19920;-80
2022/09/17 06:40:49;;;;;;;;;;;;;;;10.64;83.93;99256.28;8354882;28;19963;-80
2022/09/17 06:44:57;;;;;;;;;;;;;;;11.03;82.70;99264.63;8350016;28;20461;-79
2022/09/17 06:49:12;;;;;;;;;;;;;;;11.50;81.60;99272.00;8325935;28;20307;-80
2022/09/17 06:53:24;;;;;;;;;;;;;;;11.78;78.33;99263.03;8336185;28;19905;-82
2022/09/17 06:57:30;;;;;;;;;;;;;;;12.18;77.80;99267.75;8328161;28;19932;-81
2022/09/17 07:01:33;;;;;;;;;;;;;;;12.67;75.63;99269.69;8320313;28;20280;-81
2022/09/17 07:05:50;;;;;;;;;;;;;;;12.83;74.35;99276.41;8325418;28;20363;-80
2022/09/17 07:09:52;;;;;;;;;;;;;;;12.64;73.45;99269.75;8322844;28;19931;-80
2022/09/17 07:13:55;;;;;;;;;;;;;;;12.94;73.08;99284.06;8323239;28;19925;-80
2022/09/17 07:17:56;;;;;;;;;;;;;;;13.21;72.34;99283.63;8318766;28;19925;-80
2022/09/17 07:21:57;;;;;;;;;;;;;;;13.13;71.95;99282.88;8320595;28;20350;-80
2022/09/17 07:26:01;;;;;;;;;;;;;;;13.01;71.91;99283.06;8321331;28;19990;-80
2022/09/17 07:30:02;;;;;;;;;;;;;;;12.88;72.27;99291.94;8324291;28;20245;-80
2022/09/17 07:34:05;;;;;;;;;;;;;;;12.79;73.19;99289.50;8390409;28;19999;-80
2022/09/17 07:38:07;;;;;;;;;;;;;;;12.88;72.00;99298.03;8378834;28;19924;-80
2022/09/17 07:42:15;;;;;;;;;;;;;;;12.86;71.63;99298.94;8387415;28;20330;-77
2022/09/17 07:46:18;;;;;;;;;;;;;;;13.19;73.32;99292.38;8376334;28;19938;-77
2022/09/17 07:50:26;;;;;;;;;;;;;;;13.67;71.40;99290.66;8368979;28;19924;-77
2022/09/17 07:54:36;;;;;;;;;;;;;;;14.25;68.71;99293.88;8404436;28;19930;-77
2022/09/17 07:58:37;;;;;;;;;;;;;;;14.70;67.18;99284.19;8385550;28;19982;-77
2022/09/17 08:02:51;;;;;;;;;;;;;;;15.01;66.88;99293.03;8347067;28;19925;-77
2022/09/17 08:06:59;;;;;;;;;;;;;;;15.39;64.68;99305.16;8337340;28;20238;-77
2022/09/17 08:11:02;;;;;;;;;;;;;;;15.55;62.81;99297.78;8356675;28;19928;-77
2022/09/17 08:15:03;;;;;;;;;;;;;;;15.61;62.03;99299.41;8337009;28;19925;-77
2022/09/17 08:19:11;;;;;;;;;;;;;;;15.26;61.17;99295.94;8389778;28;20423;-77
2022/09/17 08:23:13;;;;;;;;;;;;;;;14.94;63.75;99296.72;8385812;28;19930;-77
2022/09/17 08:27:14;;;;;;;;;;;;;;;14.91;63.51;99298.53;8388401;28;20381;-77
2022/09/17 08:31:17;;;;;;;;;;;;;;;15.14;64.62;99303.22;8367136;28;19987;-78
2022/09/17 08:35:26;;;;;;;;;;;;;;;15.00;63.60;99309.63;8355303;28;19925;-77
2022/09/17 08:39:28;;;;;;;;;;;;;;;14.88;63.76;99303.81;8349162;28;19928;-77
2022/09/17 08:43:32;;;;;;;;;;;;;;;14.82;63.80;99307.44;8338988;28;20139;-77
2022/09/17 08:47:37;;;;;;;;;;;;;;;14.85;64.72;99309.97;8353338;28;19974;-77
2022/09/17 08:51:50;;;;;;;;;;;;;;;14.81;65.86;99324.88;8362312;28;19925;-77
2022/09/17 08:56:01;;;;;;;;;;;;;;;15.00;65.01;99316.59;8352740;28;19932;-77
2022/09/17 09:00:08;;;;;;;;;;;;;;;15.46;62.82;99318.97;8351663;28;19960;-77
2022/09/17 09:04:18;;;;;;;;;;;;;;;15.78;61.44;99320.75;8351907;28;19925;-77
2022/09/17 09:08:44;;;;;;;;;;;;;;;15.80;61.38;99323.34;8354030;28;19928;-77
2022/09/17 09:12:46;;;;;;;;;;;;;;;16.02;60.60;99312.25;8351605;28;19986;-77
2022/09/17 09:16:48;;;;;;;;;;;;;;;16.43;60.65;99307.59;8347952;28;20558;-77
2022/09/17 09:20:54;;;;;;;;;;;;;;;16.16;57.10;99316.25;8355080;28;19978;-77
2022/09/17 09:25:09;;;;;;;;;;;;;;;15.65;59.26;99311.53;8356675;28;20680;-77
2022/09/17 09:29:38;;;;;;;;;;;;;;;15.10;60.68;99313.75;8354294;28;19924;-77
2022/09/17 09:33:41;;;;;;;;;;;;;;;14.96;62.47;99312.34;8352802;28;19924;-77
2022/09/17 09:38:18;;;;;;;;;;;;;;;15.19;63.22;99304.81;8383616;28;20010;-77
2022/09/17 09:42:23;;;;;;;;;;;;;;;15.42;62.16;99305.09;8381753;28;20343;-77
2022/09/17 09:46:27;;;;;;;;;;;;;;;15.55;62.17;99305.63;8350814;28;19924;-77
2022/09/17 09:50:48;;;;;;;;;;;;;;;15.56;61.33;99302.13;8384324;28;20677;-77
2022/09/17 09:55:13;;;;;;;;;;;;;;;15.54;62.15;99317.00;8367251;28;19928;-77
2022/09/17 09:59:26;;;;;;;;;;;;;;;15.37;61.12;99306.97;8386523;28;20035;-77
2022/09/17 10:03:38;;;;;;;;;;;;;;;15.34;61.63;99319.28;8380487;28;20431;-77
2022/09/17 10:07:44;;;;;;;;;;;;;;;15.21;62.68;99315.22;8365583;28;19968;-78
2022/09/17 10:12:12;;;;;;;;;;;;;;;15.07;62.88;99320.78;8384651;28;19924;-76
2022/09/17 10:16:20;;;;;;;;;;;;;;;15.05;62.49;99315.59;8374607;28;19936;-77
2022/09/17 10:20:22;;;;;;;;;;;;;;;15.20;61.08;99305.66;8383499;28;19935;-77
2022/09/17 10:24:28;;;;;;;;;;;;;;;15.55;60.09;99305.63;8383097;28;20496;-78
2022/09/17 10:28:42;;;;;;;;;;;;;;;15.75;59.10;99305.16;8384779;28;19928;-77
2022/09/17 10:33:04;;;;;;;;;;;;;;;15.90;58.37;99301.25;8379004;28;19990;-77
2022/09/17 10:37:25;;;;;;;;;;;;;;;16.35;59.21;99309.59;8375392;28;20002;-77
2022/09/17 10:41:26;;;;;;;;;;;;;;;16.57;56.91;99312.44;8360698;28;19937;-77
2022/09/17 10:45:29;;;;;;;;;;;;;;;16.63;57.02;99317.47;8355078;28;19924;-77
2022/09/17 10:49:30;;;;;;;;;;;;;;;16.18;56.15;99320.56;8373321;28;19924;-78
2022/09/17 10:53:39;;;;;;;;;;;;;;;15.61;58.09;99329.06;8352055;28;19974;-78
2022/09/17 10:57:53;;;;;;;;;;;;;;;15.50;61.52;99322.38;8350473;28;20749;-78
2022/09/17 11:02:00;;;;;;;;;;;;;;;15.55;61.63;99323.09;8348312;28;19991;-79
2022/09/17 11:06:27;;;;;;;;;;;;;;;15.75;61.70;99312.13;8351794;28;19964;-79
2022/09/17 11:10:47;;;;;;;;;;;;;;;15.66;61.44;99313.25;8336996;28;20665;-79
2022/09/17 11:15:02;;;;;;;;;;;;;;;15.50;61.47;99306.66;8334742;28;19928;-79
2022/09/17 11:19:22;;;;;;;;;;;;;;;15.73;62.66;99295.63;8352956;28;19932;-79
2022/09/17 11:23:38;;;;;;;;;;;;;;;15.85;60.89;99288.31;8349948;28;20277;-79
2022/09/17 11:27:46;;;;;;;;;;;;;;;16.20;59.28;99282.06;8354041;28;19924;-79
2022/09/17 11:31:51;;;;;;;;;;;;;;;16.36;57.81;99276.38;8342385;28;19979;-78
2022/09/17 11:36:01;;;;;;;;;;;;;;;16.12;55.93;99275.31;8344202;28;19951;-77
2022/09/17 11:40:11;;;;;;;;;;;;;;;15.79;56.24;99282.34;8334861;28;19932;-77
2022/09/17 11:44:28;;;;;;;;;;;;;;;15.60;57.83;99272.38;8346551;28;20767;-77
2022/09/17 11:49:02;;;;;;;;;;;;;;;15.89;59.28;99273.34;8343966;28;19985;-77
2022/09/17 11:53:07;;;;;;;;;;;;;;;16.43;58.07;99249.09;8313071;28;19978;-78
2022/09/17 11:57:14;;;;;;;;;;;;;;;16.92;56.46;99257.16;8350385;28;19937;-77
2022/09/17 12:01:37;;;;;;;;;;;;;;;17.30;53.15;99264.69;8351861;28;20307;-77
2022/09/17 12:05:53;;;;;;;;;;;;;;;17.32;51.63;99255.84;8348053;28;19992;-77
2022/09/17 12:10:02;;;;;;;;;;;;;;;17.03;52.63;99261.19;8352876;28;19978;-77
2022/09/17 12:14:08;;;;;;;;;;;;;;;17.01;54.31;99250.75;8353026;28;19925;-77
2022/09/17 12:18:09;;;;;;;;;;;;;;;17.20;52.58;99248.38;8370114;28;19939;-77
2022/09/17 12:22:34;;;;;;;;;;;;;;;17.71;52.77;99232.59;8343100;28;19986;-77
2022/09/17 12:26:59;;;;;;;;;;;;;;;18.16;51.95;99233.63;8356904;28;19927;-77
2022/09/17 12:31:05;;;;;;;;;;;;;;;17.64;50.53;99238.13;8347801;28;20063;-77
2022/09/17 12:35:27;;;;;;;;;;;;;;;17.35;50.96;99239.97;8364213;28;20436;-77
2022/09/17 12:40:08;;;;;;;;;;;;;;;17.13;52.60;99231.13;8367243;28;20723;-77
2022/09/17 12:44:16;;;;;;;;;;;;;;;16.86;52.12;99235.50;8374350;28;19920;-78
2022/09/17 12:48:20;;;;;;;;;;;;;;;16.66;52.19;99232.63;8368761;28;19932;-77
2022/09/17 12:52:22;;;;;;;;;;;;;;;16.61;53.51;99227.53;8384261;28;19934;-77
2022/09/17 12:56:29;;;;;;;;;;;;;;;16.65;53.19;99225.66;8357753;28;19924;-78
2022/09/17 13:00:47;;;;;;;;;;;;;;;16.81;51.64;99226.94;8386008;28;20246;-78
2022/09/17 13:05:13;;;;;;;;;;;;;;;17.09;50.18;99216.41;8375952;28;19935;-78
2022/09/17 13:09:33;;;;;;;;;;;;;;;17.16;49.06;99207.41;8358365;28;19928;-80
2022/09/17 13:13:40;;;;;;;;;;;;;;;17.53;49.42;99202.59;8357209;28;19924;-79
2022/09/17 13:17:52;;;;;;;;;;;;;;;17.74;46.26;99206.22;8387245;28;19963;-78
2022/09/17 13:22:17;;;;;;;;;;;;;;;17.81;46.09;99210.38;8372216;28;19924;-79
2022/09/17 13:26:20;;;;;;;;;;;;;;;17.72;46.41;99210.69;8374340;28;19928;-79
2022/09/17 13:30:22;;;;;;;;;;;;;;;17.79;46.57;99220.06;8354264;28;20594;-79
2022/09/17 13:34:31;;;;;;;;;;;;;;;17.89;46.13;99209.22;8352379;28;19924;-79
2022/09/17 13:38:40;;;;;;;;;;;;;;;18.12;47.35;99223.19;8372870;28;20040;-77
2022/09/17 13:42:45;;;;;;;;;;;;;;;18.23;47.95;99228.06;8369221;28;19928;-77
2022/09/17 13:46:47;;;;;;;;;;;;;;;18.08;47.32;99237.38;8352657;28;20015;-79
2022/09/17 13:50:49;;;;;;;;;;;;;;;17.96;47.31;99232.59;8392688;28;19920;-79
2022/09/17 13:54:50;;;;;;;;;;;;;;;18.04;48.17;99233.16;8372202;28;19928;-79
2022/09/17 13:58:52;;;;;;;;;;;;;;;18.13;48.08;99234.56;8388811;28;20486;-78
2022/09/17 14:02:54;;;;;;;;;;;;;;;17.95;46.92;99237.88;8353345;28;19932;-77
2022/09/17 14:06:58;;;;;;;;;;;;;;;17.81;47.22;99241.03;8381324;28;19924;-77
2022/09/17 14:11:01;;;;;;;;;;;;;;;17.84;48.44;99240.91;8349533;28;19986;-76
2022/09/17 14:15:02;;;;;;;;;;;;;;;17.77;48.75;99237.66;8370614;28;19928;-78
2022/09/17 14:19:22;;;;;;;;;;;;;;;17.69;48.24;99250.19;8381603;28;19958;-79
2022/09/17 14:23:24;;;;;;;;;;;;;;;17.48;49.01;99254.41;8371990;28;19924;-78
2022/09/17 14:27:34;;;;;;;;;;;;;;;17.29;48.60;99253.31;8386036;28;20011;-78
2022/09/17 14:31:43;;;;;;;;;;;;;;;16.90;50.62;99258.97;8351590;28;19924;-79
2022/09/17 14:36:00;;;;;;;;;;;;;;;16.60;52.02;99263.38;8364571;28;20315;-79
2022/09/17 14:40:08;;;;;;;;;;;;;;;16.46;51.40;99254.22;8382313;28;19970;-79
2022/09/17 14:44:17;;;;;;;;;;;;;;;16.21;52.22;99249.72;8370891;28;19928;-79
2022/09/17 14:48:29;;;;;;;;;;;;;;;16.17;53.67;99255.97;8366349;28;19928;-79
2022/09/17 14:52:31;;;;;;;;;;;;;;;16.07;54.25;99254.50;8371008;28;19932;-79
2022/09/17 14:56:39;;;;;;;;;;;;;;;15.94;53.82;99260.97;8368587;28;19924;-76
2022/09/17 15:00:50;;;;;;;;;;;;;;;15.77;53.61;99263.22;8372765;28;19928;-78
2022/09/17 15:04:52;;;;;;;;;;;;;;;15.51;54.67;99262.13;8373428;28;19952;-78
2022/09/17 15:08:56;;;;;;;;;;;;;;;15.46;56.05;99264.03;8386146;28;19966;-78
2022/09/17 15:12:57;;;;;;;;;;;;;;;15.40;56.87;99270.25;8365843;28;20605;-78
2022/09/17 15:17:02;;;;;;;;;;;;;;;15.34;57.30;99262.56;8365011;28;19937;-78
2022/09/17 15:21:29;;;;;;;;;;;;;;;15.58;57.74;99257.59;8369693;28;20361;-78
2022/09/17 15:25:32;;;;;;;;;;;;;;;15.78;58.20;99254.47;8364158;28;19932;-77
2022/09/17 15:29:33;;;;;;;;;;;;;;;15.75;58.17;99252.78;8368211;28;19985;-78
2022/09/17 15:33:43;;;;;;;;;;;;;;;15.71;58.58;99249.41;8379787;28;20300;-78
2022/09/17 15:37:52;;;;;;;;;;;;;;;15.56;58.74;99259.38;8351857;28;19932;-78
2022/09/17 15:42:23;;;;;;;;;;;;;;;15.35;59.32;99256.44;8364424;28;19929;-78
2022/09/17 15:46:25;;;;;;;;;;;;;;;15.27;60.85;99261.03;8350522;28;19979;-78
2022/09/17 15:50:35;;;;;;;;;;;;;;;15.06;62.57;99270.25;8351436;28;19925;-78
2022/09/17 15:54:36;;;;;;;;;;;;;;;14.93;64.31;99278.44;8359933;28;19921;-79
2022/09/17 15:58:44;;;;;;;;;;;;;;;14.79;64.49;99282.22;8359622;28;19929;-78
2022/09/17 16:02:46;;;;;;;;;;;;;;;14.58;65.38;99290.56;8357228;28;20008;-78
2022/09/17 16:06:50;;;;;;;;;;;;;;;14.17;67.19;99297.47;8359646;28;19925;-78
2022/09/17 16:10:58;;;;;;;;;;;;;;;13.86;69.76;99301.59;8351667;28;19978;-80
2022/09/17 16:15:00;;;;;;;;;;;;;;;13.61;71.60;99296.81;8354405;28;19998;-79
2022/09/17 16:19:02;;;;;;;;;;;;;;;13.51;73.01;99295.28;8357444;28;19925;-79
2022/09/17 16:23:04;;;;;;;;;;;;;;;13.35;74.54;99300.78;8371786;28;19978;-78
2022/09/17 16:27:05;;;;;;;;;;;;;;;13.24;75.37;99306.19;8346051;28;19973;-78
2022/09/17 16:31:13;;;;;;;;;;;;;;;13.88;73.43;99295.47;8353656;28;20405;-79
2022/09/17 16:35:16;;;;;;;;;;;;;;;17.48;62.34;99291.16;8367110;28;20011;-78
2022/09/17 16:39:24;;;;;;;;;;;;;;;17.99;55.89;99302.56;8364631;28;20024;-79
2022/09/17 16:43:25;;;;;;;;;;;;;;;16.22;59.94;99303.84;8371517;28;19978;-79
2022/09/17 16:47:29;;;;;;;;;;;;;;;15.13;64.87;99310.19;8367781;28;20315;-79
2022/09/17 16:51:30;;;;;;;;;;;;;;;14.35;67.65;99306.69;8375014;28;19929;-78
2022/09/17 16:55:32;;;;;;;;;;;;;;;13.80;70.17;99317.38;8386891;28;19987;-78
2022/09/17 16:59:33;;;;;;;;;;;;;;;13.37;72.51;99317.28;8368391;28;19933;-78
2022/09/17 17:03:35;;;;;;;;;;;;;;;13.04;74.94;99316.91;8383414;28;19981;-78
2022/09/17 17:07:43;;;;;;;;;;;;;;;12.80;76.02;99331.16;8386046;28;19924;-78
2022/09/17 17:11:44;;;;;;;;;;;;;;;12.57;76.48;99328.91;8368812;28;19924;-78
2022/09/17 17:15:52;;;;;;;;;;;;;;;12.37;77.84;99341.28;8379737;28;19928;-78
2022/09/17 17:19:54;;;;;;;;;;;;;;;12.23;78.54;99343.22;8365155;28;19924;-80
2022/09/17 17:23:56;;;;;;;;;;;;;;;12.09;79.02;99340.75;8367043;28;19978;-80
2022/09/17 17:27:57;;;;;;;;;;;;;;;11.93;78.65;99358.28;8356015;28;19924;-79
2022/09/17 17:31:59;;;;;;;;;;;;;;;11.88;78.31;99356.63;8366396;28;19960;-80
2022/09/17 17:36:01;;;;;;;;;;;;;;;11.86;77.78;99361.84;8373361;28;21052;-80
2022/09/17 17:40:09;;;;;;;;;;;;;;;11.84;77.12;99360.09;8350078;28;19948;-80
2022/09/17 17:44:16;;;;;;;;;;;;;;;11.78;77.86;99364.50;8356783;28;20361;-79
2022/09/17 17:48:18;;;;;;;;;;;;;;;11.80;77.99;99369.69;8344313;28;19983;-79
2022/09/17 17:52:19;;;;;;;;;;;;;;;11.69;78.32;99368.91;8348956;28;20168;-79
2022/09/17 17:56:27;;;;;;;;;;;;;;;11.62;78.89;99370.69;8350925;28;19931;-79
2022/09/17 18:00:29;;;;;;;;;;;;;;;11.64;79.05;99368.94;8344849;28;20362;-79
2022/09/17 18:04:30;;;;;;;;;;;;;;;11.59;79.85;99370.72;8351906;28;19936;-79
2022/09/17 18:08:31;;;;;;;;;;;;;;;11.61;80.56;99370.69;8333200;28;19924;-79
2022/09/17 18:12:33;;;;;;;;;;;;;;;11.63;80.90;99374.16;8346953;28;19928;-80
2022/09/17 18:16:34;;;;;;;;;;;;;;;11.67;80.73;99381.03;8345202;28;19924;-79
2022/09/17 18:20:42;;;;;;;;;;;;;;;11.68;80.71;99388.00;8332204;28;20383;-78
2022/09/17 18:24:44;;;;;;;;;;;;;;;11.66;80.31;99387.97;8366188;28;20355;-78
2022/09/17 18:28:46;;;;;;;;;;;;;;;11.63;80.21;99389.75;8345536;28;20001;-77
2022/09/17 18:32:48;;;;;;;;;;;;;;;11.64;80.18;99397.53;8345069;28;20345;-78
2022/09/17 18:36:55;;;;;;;;;;;;;;;11.64;80.17;99389.72;8375943;28;19985;-78
2022/09/17 18:41:03;;;;;;;;;;;;;;;11.64;79.35;99396.66;8384675;28;19925;-78
2022/09/17 18:45:05;;;;;;;;;;;;;;;11.65;79.05;99398.41;8371096;28;19925;-78
2022/09/17 18:49:07;;;;;;;;;;;;;;;11.63;78.65;99398.41;8371734;28;19924;-78
2022/09/17 18:53:08;;;;;;;;;;;;;;;11.55;78.12;99410.63;8351204;28;19920;-78
2022/09/17 18:57:09;;;;;;;;;;;;;;;11.43;77.56;99413.31;8384883;28;19924;-78
2022/09/17 19:01:19;;;;;;;;;;;;;;;11.33;78.19;99411.69;8381069;28;19928;-78
2022/09/17 19:05:20;;;;;;;;;;;;;;;11.25;78.74;99422.09;8370264;28;19928;-78
2022/09/17 19:09:22;;;;;;;;;;;;;;;11.17;79.14;99423.91;8356129;28;20261;-78
2022/09/17 19:13:34;;;;;;;;;;;;;;;11.05;79.29;99426.56;8371393;28;19978;-78
2022/09/17 19:17:35;;;;;;;;;;;;;;;10.96;80.48;99442.22;8353428;28;19931;-78
2022/09/17 19:21:36;;;;;;;;;;;;;;;10.86;81.20;99438.78;8384039;28;19932;-78
2022/09/17 19:25:38;;;;;;;;;;;;;;;10.80;81.84;99442.28;8391861;28;19994;-78
2022/09/17 19:29:39;;;;;;;;;;;;;;;10.78;82.24;99446.63;8369773;28;19928;-78
2022/09/17 19:33:41;;;;;;;;;;;;;;;10.74;82.65;99452.69;8387125;28;19932;-78
2022/09/17 19:37:42;;;;;;;;;;;;;;;10.73;83.05;99463.94;8379341;28;19926;-78
2022/09/17 19:41:43;;;;;;;;;;;;;;;10.73;83.68;99461.34;8351293;28;20314;-78
2022/09/17 19:45:45;;;;;;;;;;;;;;;10.71;83.72;99463.09;8365654;28;19932;-78
2022/09/17 19:49:49;;;;;;;;;;;;;;;10.71;84.11;99473.47;8358545;28;19920;-78
2022/09/17 19:53:51;;;;;;;;;;;;;;;10.64;84.02;99474.38;8386942;28;19938;-78
2022/09/17 19:57:52;;;;;;;;;;;;;;;10.58;84.13;99471.78;8369132;28;19931;-78
2022/09/17 20:01:54;;;;;;;;;;;;;;;10.48;83.85;99478.75;8373021;28;20312;-78
2022/09/17 20:06:03;;;;;;;;;;;;;;;10.37;84.26;99482.22;8367192;28;19931;-78
2022/09/17 20:10:10;;;;;;;;;;;;;;;10.27;84.30;99477.06;8372281;28;19924;-78
2022/09/17 20:14:18;;;;;;;;;;;;;;;10.17;84.45;99488.28;8367197;28;20009;-78
2022/09/17 20:18:27;;;;;;;;;;;;;;;9.99;84.03;99480.53;8367110;28;20011;-77
2022/09/17 20:22:28;;;;;;;;;;;;;;;9.96;84.91;99475.34;8365853;28;20341;-77
2022/09/17 20:26:30;;;;;;;;;;;;;;;9.96;84.09;99480.53;8360706;28;19990;-77
2022/09/17 20:30:31;;;;;;;;;;;;;;;10.01;83.86;99481.38;8366656;28;19989;-78
2022/09/17 20:34:39;;;;;;;;;;;;;;;10.03;83.16;99477.06;8393495;28;19924;-78
2022/09/17 20:38:48;;;;;;;;;;;;;;;10.06;82.63;99482.28;8377332;28;19920;-79
2022/09/17 20:43:09;;;;;;;;;;;;;;;10.07;82.22;99483.13;8368268;28;19924;-78
2022/09/17 20:47:10;;;;;;;;;;;;;;;10.05;82.86;99490.88;8372996;28;20364;-79
2022/09/17 20:51:14;;;;;;;;;;;;;;;10.02;82.20;99490.03;8392523;28;19982;-79
2022/09/17 20:55:16;;;;;;;;;;;;;;;9.94;82.43;99493.50;8374088;28;19920;-79
2022/09/17 20:59:18;;;;;;;;;;;;;;;9.83;82.82;99489.19;8360528;28;20018;-79
2022/09/17 21:03:21;;;;;;;;;;;;;;;9.72;83.68;99489.19;8376209;28;20011;-79
2022/09/17 21:07:23;;;;;;;;;;;;;;;9.67;83.53;99491.75;8376225;28;19928;-79
2022/09/17 21:11:30;;;;;;;;;;;;;;;9.64;83.91;99478.78;8358455;28;20022;-79
2022/09/17 21:15:32;;;;;;;;;;;;;;;9.58;84.31;99491.75;8357820;28;19920;-79
2022/09/17 21:19:33;;;;;;;;;;;;;;;9.48;84.25;99484.81;8373039;28;19920;-79
2022/09/17 21:23:35;;;;;;;;;;;;;;;9.42;84.86;99489.16;8374740;28;19932;-79
2022/09/17 21:27:37;;;;;;;;;;;;;;;9.29;84.69;99494.28;8375236;28;19924;-79
2022/09/17 21:31:38;;;;;;;;;;;;;;;9.25;85.62;99496.88;8378502;28;19928;-79